Time;durP1;ratioP1;P1;durP2;ratioP2;P2;SDS_P1;SDS_P2;PMS_P1;PMS_P2;Temp;Humidity;BMP_temperature;BMP_pressure;BME280_temperature;BME280_humidity;BME280_pressure;Samples;Min_cycle;Max_cycle;Signal;HPM_P1;HPM_P2
2021/05/07 00:02:23;;;;;;;17.13;9.80;;;5.30;99.90;;;;;;5082444;28;20048;-81
2021/05/07 00:04:50;;;;;;;14.47;10.97;;;5.40;99.90;;;;;;5104579;27;20048;-81
2021/05/07 00:07:17;;;;;;;14.57;11.40;;;5.40;99.90;;;;;;5103747;28;20047;-81
2021/05/07 00:09:43;;;;;;;14.67;11.17;;;5.40;99.90;;;;;;5084251;28;20047;-80
2021/05/07 00:12:10;;;;;;;14.43;11.57;;;5.40;99.90;;;;;;5103640;27;20051;-81
2021/05/07 00:14:36;;;;;;;17.70;11.33;;;5.40;99.90;;;;;;5106434;28;20040;-80
2021/05/07 00:17:03;;;;;;;17.27;11.00;;;5.30;99.90;;;;;;5067139;28;20035;-81
2021/05/07 00:19:30;;;;;;;14.03;9.93;;;5.20;99.90;;;;;;5103570;28;20039;-81
2021/05/07 00:21:57;;;;;;;11.07;9.23;;;5.20;99.90;;;;;;5102759;28;20053;-82
2021/05/07 00:24:24;;;;;;;12.83;9.60;;;5.10;99.90;;;;;;5084856;28;20063;-81
2021/05/07 00:26:51;;;;;;;11.97;10.27;;;5.10;99.90;;;;;;5103355;28;20043;-79
2021/05/07 00:29:17;;;;;;;12.53;9.57;;;5.00;99.90;;;;;;5103695;28;20406;-80
2021/05/07 00:31:44;;;;;;;14.77;10.13;;;5.00;99.90;;;;;;5101182;28;20829;-79
2021/05/07 00:34:10;;;;;;;15.43;10.47;;;4.90;99.90;;;;;;5070778;28;20082;-80
2021/05/07 00:36:37;;;;;;;12.90;10.50;;;4.90;99.90;;;;;;5104195;28;20044;-78
2021/05/07 00:39:05;;;;;;;13.90;9.27;;;4.80;99.90;;;;;;5084041;28;20054;-79
2021/05/07 00:41:32;;;;;;;12.13;9.80;;;4.80;99.90;;;;;;5069373;28;20036;-79
2021/05/07 00:43:59;;;;;;;14.17;9.67;;;4.70;99.90;;;;;;5102948;28;20039;-82
2021/05/07 00:46:25;;;;;;;14.47;9.20;;;4.70;99.90;;;;;;5086275;28;20410;-82
2021/05/07 00:48:52;;;;;;;17.53;9.73;;;4.70;99.90;;;;;;5083943;28;20081;-83
2021/05/07 00:51:21;;;;;;;11.87;9.90;;;4.70;99.90;;;;;;5068190;28;20793;-81
2021/05/07 00:53:49;;;;;;;8.73;7.20;;;4.60;99.90;;;;;;5085758;28;20032;-81
2021/05/07 00:56:16;;;;;;;11.70;8.57;;;4.60;99.90;;;;;;5068889;28;20383;-82
2021/05/07 00:58:45;;;;;;;10.83;8.93;;;4.50;99.90;;;;;;5097635;28;20048;-85
2021/05/07 01:01:12;;;;;;;10.63;8.67;;;4.50;99.90;;;;;;5068579;28;20036;-84
2021/05/07 01:03:39;;;;;;;13.33;8.73;;;4.40;99.90;;;;;;5075058;28;20036;-84
2021/05/07 01:06:06;;;;;;;12.43;9.13;;;4.40;99.90;;;;;;5056834;28;20039;-84
2021/05/07 01:08:35;;;;;;;12.57;9.07;;;4.40;99.90;;;;;;5086322;28;20059;-85
2021/05/07 01:11:02;;;;;;;15.77;9.70;;;4.30;99.90;;;;;;5105093;28;20028;-85
2021/05/07 01:13:30;;;;;;;12.83;9.37;;;4.30;99.90;;;;;;5058117;28;20485;-82
2021/05/07 01:16:07;;;;;;;17.43;9.30;;;4.20;99.90;;;;;;5103023;28;20027;-80
2021/05/07 01:18:35;;;;;;;13.63;10.23;;;4.20;99.90;;;;;;5106911;28;20028;-81
2021/05/07 01:21:02;;;;;;;14.33;9.57;;;4.20;99.90;;;;;;5102154;28;20047;-82
2021/05/07 01:23:28;;;;;;;13.47;9.80;;;4.10;99.90;;;;;;5089148;28;20537;-82
2021/05/07 01:25:55;;;;;;;12.07;9.57;;;4.10;99.90;;;;;;5091324;28;20397;-83
2021/05/07 01:28:22;;;;;;;12.87;9.87;;;4.10;99.90;;;;;;5087611;28;20054;-83
2021/05/07 01:30:50;;;;;;;14.83;9.70;;;4.00;99.90;;;;;;5089168;28;20048;-84
2021/05/07 01:33:22;;;;;;;16.48;9.50;;;4.00;99.90;;;;;;5074119;28;20050;-83
2021/05/07 01:35:50;;;;;;;14.63;9.87;;;4.00;99.90;;;;;;5059298;28;20042;-83
2021/05/07 01:38:18;;;;;;;13.27;9.27;;;4.00;99.90;;;;;;5075684;28;20031;-86
2021/05/07 01:40:48;;;;;;;11.63;9.20;;;4.00;99.90;;;;;;5072825;28;20039;-81
2021/05/07 01:43:16;;;;;;;14.17;9.77;;;3.90;99.90;;;;;;5103998;28;20042;-79
2021/05/07 01:45:46;;;;;;;12.57;9.63;;;3.90;99.90;;;;;;5055939;28;20040;-79
2021/05/07 01:48:15;;;;;;;15.50;10.57;;;3.90;99.90;;;;;;5057196;28;20040;-79
2021/05/07 01:50:44;;;;;;;15.87;10.40;;;3.90;99.90;;;;;;5085519;28;20042;-80
2021/05/07 01:53:12;;;;;;;16.93;11.43;;;3.80;99.90;;;;;;5074052;28;20038;-80
2021/05/07 01:55:47;;;;;;;13.30;10.17;;;3.80;99.90;;;;;;5071550;28;20036;-78
2021/05/07 01:58:19;;;;;;;13.87;10.30;;;3.80;99.90;;;;;;5087411;28;20035;-80
2021/05/07 02:00:49;;;;;;;13.10;10.57;;;3.70;99.90;;;;;;5070952;28;20513;-82
2021/05/07 02:03:15;;;;;;;13.67;10.23;;;3.70;99.90;;;;;;5086185;28;20040;-81
2021/05/07 02:05:55;;;;;;;13.83;10.57;;;3.70;99.90;;;;;;5091962;28;20058;-80
2021/05/07 02:08:22;;;;;;;14.00;10.90;;;3.60;99.90;;;;;;5090172;28;20406;-80
2021/05/07 02:10:49;;;;;;;15.20;10.47;;;3.60;99.90;;;;;;5066784;28;20052;-80
2021/05/07 02:13:17;;;;;;;17.17;10.80;;;3.60;99.90;;;;;;5102642;28;20039;-79
2021/05/07 02:15:49;;;;;;;15.90;10.70;;;3.60;99.90;;;;;;5073462;28;20036;-80
2021/05/07 02:18:18;;;;;;;15.17;12.20;;;3.50;99.90;;;;;;5072530;28;20126;-80
2021/05/07 02:20:48;;;;;;;15.40;11.17;;;3.50;99.90;;;;;;5070439;28;20028;-80
2021/05/07 02:23:16;;;;;;;14.87;11.27;;;3.50;99.90;;;;;;5070990;28;20403;-80
2021/05/07 02:25:44;;;;;;;17.00;11.40;;;3.50;99.90;;;;;;5039574;28;20052;-82
2021/05/07 02:28:16;;;;;;;16.03;11.13;;;3.50;99.90;;;;;;5057929;28;20055;-80
2021/05/07 02:30:43;;;;;;;17.57;11.60;;;3.50;99.90;;;;;;5103629;28;20927;-81
2021/05/07 02:33:11;;;;;;;17.97;12.17;;;3.40;99.90;;;;;;5053098;28;20403;-81
2021/05/07 02:35:37;;;;;;;17.47;12.17;;;3.40;99.90;;;;;;5054221;28;20028;-81
2021/05/07 02:38:08;;;;;;;16.67;11.77;;;3.40;99.90;;;;;;5083351;28;20059;-81
2021/05/07 02:40:35;;;;;;;14.47;11.97;;;3.40;99.90;;;;;;5069102;28;20056;-80
2021/05/07 02:43:03;;;;;;;20.00;12.87;;;3.40;99.90;;;;;;5088282;28;20043;-81
2021/05/07 02:45:34;;;;;;;15.27;11.60;;;3.40;99.90;;;;;;5074840;28;20043;-81
2021/05/07 02:48:00;;;;;;;16.97;12.70;;;3.50;99.90;;;;;;5059054;28;20036;-80
2021/05/07 02:50:27;;;;;;;16.63;12.53;;;3.60;99.90;;;;;;5069615;28;20043;-81
2021/05/07 02:52:53;;;;;;;18.67;13.50;;;3.60;99.90;;;;;;5072156;28;20035;-80
2021/05/07 02:55:21;;;;;;;20.00;13.03;;;3.70;99.90;;;;;;5056336;28;20044;-80
2021/05/07 02:57:47;;;;;;;20.03;12.97;;;3.70;99.90;;;;;;5084229;28;20044;-80
2021/05/07 03:00:16;;;;;;;20.77;13.17;;;3.80;99.90;;;;;;5065807;28;20043;-80
2021/05/07 03:02:43;;;;;;;19.07;12.67;;;3.90;99.90;;;;;;5054644;28;20054;-80
2021/05/07 03:05:10;;;;;;;20.43;13.93;;;3.90;99.90;;;;;;5055996;28;20043;-80
2021/05/07 03:07:36;;;;;;;15.90;12.43;;;4.00;99.90;;;;;;5071377;28;20422;-80
2021/05/07 03:10:04;;;;;;;16.53;12.03;;;4.00;99.90;;;;;;5068309;28;20043;-80
2021/05/07 03:12:30;;;;;;;18.07;12.47;;;4.10;99.90;;;;;;5102140;28;20044;-81
2021/05/07 03:14:57;;;;;;;18.97;12.57;;;4.10;99.90;;;;;;5069343;28;20039;-80
2021/05/07 03:17:23;;;;;;;16.77;12.87;;;4.20;99.90;;;;;;5087292;28;20038;-80
2021/05/07 03:19:50;;;;;;;18.53;13.13;;;4.20;99.90;;;;;;5084409;28;20047;-79
2021/05/07 03:22:16;;;;;;;16.20;12.13;;;4.30;99.90;;;;;;5085888;28;20048;-80
2021/05/07 03:24:43;;;;;;;17.23;12.87;;;4.30;99.90;;;;;;5068711;28;20055;-80
2021/05/07 03:27:10;;;;;;;19.00;13.23;;;4.40;99.90;;;;;;5071339;28;20032;-79
2021/05/07 03:29:37;;;;;;;19.33;12.00;;;4.40;99.90;;;;;;5068751;28;20044;-79
2021/05/07 03:32:05;;;;;;;16.57;11.77;;;4.40;99.90;;;;;;5084376;28;20040;-80
2021/05/07 03:34:32;;;;;;;17.27;13.37;;;4.50;99.90;;;;;;5103666;28;20051;-80
2021/05/07 03:36:59;;;;;;;17.50;13.07;;;4.50;99.90;;;;;;5071161;28;20093;-80
2021/05/07 03:39:25;;;;;;;17.20;13.20;;;4.50;99.90;;;;;;5054674;28;20048;-81
2021/05/07 03:41:52;;;;;;;19.23;13.50;;;4.50;99.90;;;;;;5068077;28;20810;-80
2021/05/07 03:44:18;;;;;;;18.90;14.83;;;4.50;99.90;;;;;;5038680;28;20066;-80
2021/05/07 03:46:45;;;;;;;19.53;14.97;;;4.60;99.90;;;;;;5103288;28;20525;-80
2021/05/07 03:49:11;;;;;;;23.23;16.13;;;4.60;99.90;;;;;;5068579;28;20044;-80
2021/05/07 03:51:38;;;;;;;20.50;14.90;;;4.60;99.90;;;;;;5068131;28;20039;-80
2021/05/07 03:54:05;;;;;;;23.93;16.93;;;4.60;99.90;;;;;;5067704;28;20913;-78
2021/05/07 03:56:32;;;;;;;25.47;18.17;;;4.60;99.90;;;;;;5071028;28;20031;-80
2021/05/07 03:58:58;;;;;;;20.60;16.83;;;4.70;99.90;;;;;;5068842;28;20485;-79
2021/05/07 04:01:37;;;;;;;21.97;15.70;;;4.70;99.90;;;;;;5091379;27;829025;-79
2021/05/07 04:04:07;;;;;;;16.93;14.23;;;4.70;99.90;;;;;;5090316;28;20464;-78
2021/05/07 04:06:33;;;;;;;20.50;14.40;;;4.80;99.90;;;;;;5069601;28;20036;-79
2021/05/07 04:09:08;;;;;;;17.60;14.47;;;4.80;99.90;;;;;;5067854;28;20410;-80
2021/05/07 04:11:51;;;;;;;17.03;14.30;;;4.90;99.90;;;;;;5077801;28;20031;-80
2021/05/07 04:14:18;;;;;;;;;;;4.90;99.90;;;;;;5077405;28;20062;-78
2021/05/07 04:16:44;;;;;;;17.47;13.20;;;4.90;99.90;;;;;;5104679;28;19922;-83
2021/05/07 04:19:11;;;;;;;17.57;11.83;;;4.90;99.90;;;;;;5083219;28;20057;-83
2021/05/07 04:21:37;;;;;;;12.80;7.63;;;4.90;99.90;;;;;;5069569;28;20052;-83
2021/05/07 04:24:05;;;;;;;7.00;5.10;;;4.80;99.90;;;;;;5051931;28;20429;-82
2021/05/07 04:26:31;;;;;;;4.07;2.33;;;4.60;99.90;;;;;;5067846;28;20060;-82
2021/05/07 04:28:58;;;;;;;4.13;1.40;;;4.50;99.90;;;;;;5058046;28;20087;-82
2021/05/07 04:31:24;;;;;;;2.47;1.17;;;4.30;99.90;;;;;;5069920;28;20044;-82
2021/05/07 04:33:52;;;;;;;2.10;0.90;;;4.20;99.90;;;;;;5067054;28;20028;-82
2021/05/07 04:36:19;;;;;;;2.03;1.20;;;4.10;99.90;;;;;;5085072;28;20044;-82
2021/05/07 04:38:46;;;;;;;3.10;1.10;;;4.10;99.90;;;;;;5067097;28;20040;-81
2021/05/07 04:41:12;;;;;;;3.37;1.10;;;4.10;99.90;;;;;;5053687;28;20036;-81
2021/05/07 04:43:39;;;;;;;2.93;0.90;;;4.10;99.90;;;;;;5070603;28;20051;-81
2021/05/07 04:46:05;;;;;;;2.60;0.93;;;4.10;99.90;;;;;;5053220;28;20040;-81
2021/05/07 04:48:32;;;;;;;1.67;0.97;;;4.20;99.90;;;;;;5062697;28;20051;-81
2021/05/07 04:50:58;;;;;;;3.93;1.40;;;4.30;99.90;;;;;;5052973;28;20046;-81
2021/05/07 04:53:25;;;;;;;2.60;0.80;;;4.40;99.90;;;;;;5052169;28;20399;-81
2021/05/07 04:55:51;;;;;;;3.60;1.10;;;4.40;99.90;;;;;;5069694;28;20055;-82
2021/05/07 04:58:18;;;;;;;2.83;1.23;;;4.40;99.90;;;;;;5056458;28;20040;-81
2021/05/07 05:00:44;;;;;;;3.23;0.80;;;4.50;99.90;;;;;;5081215;28;20058;-81
2021/05/07 05:03:10;;;;;;;5.33;1.40;;;4.50;99.90;;;;;;5087231;28;20481;-81
2021/05/07 05:05:37;;;;;;;3.53;1.20;;;4.50;99.90;;;;;;5083228;28;20044;-82
2021/05/07 05:08:04;;;;;;;1.67;1.07;;;4.50;99.90;;;;;;5067082;28;20043;-81
2021/05/07 05:10:30;;;;;;;2.93;1.10;;;4.50;99.90;;;;;;5064435;28;20498;-82
2021/05/07 05:12:57;;;;;;;3.93;1.10;;;4.60;99.90;;;;;;5072824;28;20037;-82
2021/05/07 05:15:24;;;;;;;2.00;0.90;;;4.60;99.90;;;;;;5069831;28;20044;-82
2021/05/07 05:17:55;;;;;;;2.70;1.10;;;4.60;99.90;;;;;;5053741;28;20372;-82
2021/05/07 05:20:22;;;;;;;3.87;1.10;;;4.60;99.90;;;;;;5069547;28;20047;-82
2021/05/07 05:22:48;;;;;;;3.23;1.10;;;4.50;99.90;;;;;;5039889;28;20410;-82
2021/05/07 05:25:15;;;;;;;4.80;1.37;;;4.60;99.90;;;;;;5052257;28;20036;-82
2021/05/07 05:27:42;;;;;;;3.93;1.10;;;4.60;99.90;;;;;;5054945;28;20052;-82
2021/05/07 05:30:09;;;;;;;5.27;1.50;;;4.70;99.90;;;;;;5062396;28;20055;-82
2021/05/07 05:32:36;;;;;;;3.80;1.70;;;4.70;99.90;;;;;;5038092;28;20040;-83
2021/05/07 05:35:04;;;;;;;3.17;1.67;;;4.60;99.90;;;;;;5058871;28;20818;-83
2021/05/07 05:37:31;;;;;;;3.80;2.67;;;4.60;99.90;;;;;;5053111;28;20047;-82
2021/05/07 05:39:58;;;;;;;3.30;2.33;;;4.60;99.90;;;;;;5065079;28;20056;-82
2021/05/07 05:42:25;;;;;;;4.70;2.50;;;4.60;99.90;;;;;;5055619;28;20031;-82
2021/05/07 05:44:51;;;;;;;6.03;3.37;;;4.60;99.90;;;;;;5070049;28;20054;-82
2021/05/07 05:47:18;;;;;;;4.90;3.00;;;4.50;99.90;;;;;;5070815;28;20031;-82
2021/05/07 05:49:44;;;;;;;3.53;2.60;;;4.50;99.90;;;;;;5083172;28;20040;-81
2021/05/07 05:52:10;;;;;;;6.77;3.70;;;4.50;99.90;;;;;;5068288;28;20044;-82
2021/05/07 05:54:37;;;;;;;5.17;3.20;;;4.40;99.90;;;;;;5072850;28;20049;-82
2021/05/07 05:57:04;;;;;;;5.33;3.57;;;4.40;99.90;;;;;;5068984;28;20040;-82
2021/05/07 05:59:30;;;;;;;6.03;2.90;;;4.50;99.90;;;;;;5038454;28;20877;-81
2021/05/07 06:01:57;;;;;;;4.37;3.10;;;4.60;99.90;;;;;;5017995;28;20519;-81
2021/05/07 06:04:23;;;;;;;4.33;3.43;;;4.70;99.90;;;;;;5048223;28;20032;-81
2021/05/07 06:06:50;;;;;;;4.63;2.90;;;4.90;99.90;;;;;;5056248;28;20036;-81
2021/05/07 06:09:16;;;;;;;3.27;2.00;;;5.10;99.90;;;;;;5051757;28;20036;-81
2021/05/07 06:11:43;;;;;;;3.73;2.13;;;5.30;99.90;;;;;;5053271;28;20040;-81
2021/05/07 06:14:09;;;;;;;3.67;1.60;;;5.50;99.90;;;;;;5070089;28;20058;-81
2021/05/07 06:16:36;;;;;;;3.33;1.90;;;5.70;99.90;;;;;;5051412;28;20522;-81
2021/05/07 06:19:05;;;;;;;3.97;2.07;;;5.80;99.90;;;;;;5071137;28;20808;-81
2021/05/07 06:21:32;;;;;;;2.00;1.30;;;6.00;99.90;;;;;;5055200;28;20066;-81
2021/05/07 06:23:58;;;;;;;3.40;1.63;;;6.30;99.90;;;;;;5038389;28;20805;-82
2021/05/07 06:26:25;;;;;;;3.37;1.40;;;6.50;99.90;;;;;;5053289;28;20813;-82
2021/05/07 06:28:51;;;;;;;1.80;1.00;;;6.80;99.90;;;;;;5066019;28;20043;-82
2021/05/07 06:31:18;;;;;;;2.25;1.35;;;7.10;99.90;;;;;;5045884;28;20395;-81
2021/05/07 06:33:44;;;;;;;2.45;1.15;;;7.30;99.90;;;;;;5068965;28;20048;-81
2021/05/07 06:36:11;;;;;;;2.28;0.98;;;7.60;99.90;;;;;;5070406;28;20055;-82
2021/05/07 06:38:38;;;;;;;2.15;0.90;;;7.80;99.90;;;;;;5049346;28;20036;-81
2021/05/07 06:41:05;;;;;;;1.52;1.10;;;7.80;99.90;;;;;;5068343;28;20103;-81
2021/05/07 06:43:31;;;;;;;2.47;0.98;;;7.80;99.90;;;;;;5036500;28;20046;-81
2021/05/07 06:45:58;;;;;;;2.80;0.90;;;7.90;99.90;;;;;;5039276;28;20055;-81
2021/05/07 06:48:24;;;;;;;3.27;0.80;;;8.10;99.90;;;;;;5065302;28;20036;-81
2021/05/07 06:50:51;;;;;;;1.58;0.77;;;8.30;99.70;;;;;;5017092;28;20039;-81
2021/05/07 06:53:19;;;;;;;3.78;1.10;;;8.40;99.50;;;;;;5069039;28;20046;-80
2021/05/07 06:55:46;;;;;;;2.42;0.80;;;8.60;99.10;;;;;;5067945;28;20118;-80
2021/05/07 06:58:12;;;;;;;1.50;0.80;;;8.60;98.50;;;;;;5068811;28;20055;-81
2021/05/07 07:00:39;;;;;;;2.53;0.90;;;8.50;98.40;;;;;;5049121;28;20051;-81
2021/05/07 07:03:05;;;;;;;3.63;0.77;;;8.50;98.00;;;;;;5067311;28;20500;-81
2021/05/07 07:05:32;;;;;;;1.85;0.70;;;8.30;97.40;;;;;;5037743;28;20033;-80
2021/05/07 07:07:58;;;;;;;3.53;0.90;;;8.30;97.20;;;;;;5068220;28;20853;-80
2021/05/07 07:10:25;;;;;;;2.75;0.98;;;8.30;97.40;;;;;;5050790;28;20043;-80
2021/05/07 07:12:52;;;;;;;2.90;1.15;;;8.30;97.00;;;;;;5019271;28;20040;-80
2021/05/07 07:15:18;;;;;;;2.40;1.00;;;8.20;97.00;;;;;;5050763;28;20051;-80
2021/05/07 07:17:45;;;;;;;2.38;1.30;;;8.20;96.90;;;;;;5080909;28;20047;-80
2021/05/07 07:20:12;;;;;;;3.13;1.00;;;8.30;96.90;;;;;;5045279;28;20507;-80
2021/05/07 07:22:38;;;;;;;2.05;1.27;;;8.20;96.70;;;;;;5052407;28;20406;-80
2021/05/07 07:25:05;;;;;;;4.85;1.42;;;8.10;96.90;;;;;;5052594;28;20055;-81
2021/05/07 07:27:32;;;;;;;2.58;1.58;;;8.20;96.50;;;;;;5052043;28;20040;-80
2021/05/07 07:29:58;;;;;;;4.70;1.60;;;8.20;96.30;;;;;;5072800;28;20048;-80
2021/05/07 07:32:26;;;;;;;3.88;1.77;;;8.40;96.40;;;;;;5061945;28;20406;-80
2021/05/07 07:34:56;;;;;;;3.88;1.42;;;8.50;96.50;;;;;;5064441;28;20051;-80
2021/05/07 07:37:22;;;;;;;3.58;1.92;;;8.70;96.30;;;;;;5069170;28;20040;-80
2021/05/07 07:39:49;;;;;;;2.90;1.13;;;8.90;96.10;;;;;;5046808;28;20041;-80
2021/05/07 07:42:15;;;;;;;3.53;1.15;;;9.10;96.20;;;;;;5080435;28;20040;-80
2021/05/07 07:44:42;;;;;;;3.13;1.85;;;9.30;96.10;;;;;;5089859;28;20036;-80
2021/05/07 07:47:08;;;;;;;3.95;1.77;;;9.50;95.70;;;;;;5053042;28;20036;-80
2021/05/07 07:49:34;;;;;;;3.10;1.45;;;9.50;95.10;;;;;;5066037;28;20043;-79
2021/05/07 07:52:01;;;;;;;2.00;1.17;;;9.60;95.00;;;;;;5085517;28;20040;-80
2021/05/07 07:54:27;;;;;;;4.35;1.60;;;9.70;94.80;;;;;;5082955;28;20039;-80
2021/05/07 07:56:54;;;;;;;3.10;1.33;;;9.70;94.50;;;;;;5062683;28;20053;-80
2021/05/07 07:59:21;;;;;;;1.90;1.60;;;9.80;94.10;;;;;;5062751;28;20499;-80
2021/05/07 08:01:47;;;;;;;2.05;1.50;;;9.90;94.40;;;;;;5048300;28;20056;-80
2021/05/07 08:04:17;;;;;;;2.85;1.58;;;10.00;94.40;;;;;;5088907;28;20047;-80
2021/05/07 08:06:44;;;;;;;3.90;1.83;;;10.10;94.20;;;;;;5066993;28;20051;-80
2021/05/07 08:09:11;;;;;;;6.93;2.42;;;10.10;94.20;;;;;;5065354;28;20055;-80
2021/05/07 08:11:38;;;;;;;4.65;1.98;;;10.30;94.30;;;;;;5043083;28;20118;-80
2021/05/07 08:14:05;;;;;;;3.03;1.63;;;10.40;93.70;;;;;;5034515;28;20051;-80
2021/05/07 08:16:32;;;;;;;3.45;2.30;;;10.50;93.60;;;;;;5083157;28;20044;-80
2021/05/07 08:18:58;;;;;;;3.92;1.75;;;10.40;93.60;;;;;;5081053;28;20024;-80
2021/05/07 08:21:26;;;;;;;4.63;1.88;;;10.30;93.90;;;;;;5082094;28;20052;-80
2021/05/07 08:23:53;;;;;;;5.35;1.63;;;10.30;92.80;;;;;;5065244;28;20048;-80
2021/05/07 08:26:21;;;;;;;4.63;1.80;;;10.20;92.70;;;;;;5083848;28;20368;-81
2021/05/07 08:28:48;;;;;;;2.20;1.30;;;10.50;93.30;;;;;;5085282;28;20044;-80
2021/05/07 08:31:14;;;;;;;3.35;1.42;;;10.90;93.20;;;;;;5049122;28;20055;-80
2021/05/07 08:33:41;;;;;;;2.70;1.45;;;11.30;92.70;;;;;;5034757;28;20036;-80
2021/05/07 08:36:08;;;;;;;3.13;1.10;;;11.50;91.80;;;;;;5054716;28;20044;-80
2021/05/07 08:38:35;;;;;;;3.40;1.30;;;11.30;91.50;;;;;;5065419;28;20040;-80
2021/05/07 08:41:05;;;;;;;4.10;1.42;;;11.30;91.10;;;;;;5065468;28;20044;-80
2021/05/07 08:43:32;;;;;;;3.30;1.40;;;11.60;91.60;;;;;;5086085;28;20036;-80
2021/05/07 08:46:06;;;;;;;3.30;1.10;;;11.80;91.20;;;;;;5085370;28;20055;-81
2021/05/07 08:48:34;;;;;;;4.35;1.50;;;11.90;90.00;;;;;;5067587;28;20052;-80
2021/05/07 08:51:02;;;;;;;2.92;1.15;;;11.80;88.90;;;;;;5067733;28;20513;-79
2021/05/07 08:53:29;;;;;;;2.78;1.00;;;11.60;89.10;;;;;;5068585;28;20052;-79
2021/05/07 08:55:56;;;;;;;3.78;0.93;;;11.50;89.70;;;;;;5070745;28;20035;-80
2021/05/07 08:58:23;;;;;;;2.10;1.13;;;11.60;87.80;;;;;;5057816;28;20044;-79
2021/05/07 09:00:50;;;;;;;1.95;0.98;;;11.50;84.80;;;;;;5091065;28;20390;-79
2021/05/07 09:03:17;;;;;;;1.85;0.60;;;11.50;85.30;;;;;;5089694;28;20036;-79
2021/05/07 09:05:44;;;;;;;1.98;0.77;;;11.70;84.80;;;;;;5056053;28;20051;-79
2021/05/07 09:08:10;;;;;;;2.78;0.85;;;11.90;83.00;;;;;;5028200;28;20028;-80
2021/05/07 09:10:41;;;;;;;2.88;0.73;;;11.90;82.40;;;;;;5069653;28;20413;-79
2021/05/07 09:13:11;;;;;;;2.22;0.82;;;11.60;82.10;;;;;;5083799;28;20039;-80
2021/05/07 09:15:41;;;;;;;3.65;1.50;;;11.50;83.50;;;;;;5081551;28;20051;-80
2021/05/07 09:18:08;;;;;;;2.90;1.10;;;11.70;82.10;;;;;;5082488;28;20479;-80
2021/05/07 09:20:39;;;;;;;1.98;0.90;;;11.80;82.20;;;;;;5070520;28;20043;-80
2021/05/07 09:23:11;;;;;;;2.35;0.60;;;11.90;82.10;;;;;;5066169;28;20039;-80
2021/05/07 09:25:48;;;;;;;2.05;0.75;;;11.90;82.60;;;;;;5070350;28;20044;-81
2021/05/07 09:28:16;;;;;;;2.58;0.80;;;11.80;80.20;;;;;;5089235;28;20027;-78
2021/05/07 09:30:45;;;;;;;3.47;0.98;;;11.60;80.40;;;;;;5091545;28;20040;-79
2021/05/07 09:33:16;;;;;;;3.42;1.00;;;11.80;81.50;;;;;;5079532;28;20054;-77
2021/05/07 09:35:43;;;;;;;3.70;0.90;;;12.00;80.10;;;;;;5084559;28;20036;-76
2021/05/07 09:38:13;;;;;;;3.03;0.85;;;12.10;78.10;;;;;;5078843;28;20905;-77
2021/05/07 09:40:41;;;;;;;3.35;1.10;;;12.10;75.70;;;;;;5087757;28;20046;-77
2021/05/07 09:43:13;;;;;;;3.90;0.85;;;12.00;76.20;;;;;;5090903;28;20043;-77
2021/05/07 09:45:42;;;;;;;3.30;1.00;;;12.00;77.40;;;;;;5074530;28;20047;-77
2021/05/07 09:48:22;;;;;;;2.75;1.23;;;12.20;76.00;;;;;;5071536;28;20036;-78
2021/05/07 09:51:01;;;;;;;2.20;0.60;;;12.30;76.50;;;;;;5082686;28;20494;-80
2021/05/07 09:53:39;;;;;;;2.72;0.80;;;12.50;75.60;;;;;;5086276;28;20044;-80
2021/05/07 09:56:21;;;;;;;3.53;0.70;;;12.80;73.00;;;;;;5092651;28;20047;-80
2021/05/07 09:58:47;;;;;;;1.75;0.70;;;13.00;73.50;;;;;;5055745;28;20059;-80
2021/05/07 10:01:14;;;;;;;3.03;0.75;;;13.10;72.30;;;;;;5072330;28;20067;-80
2021/05/07 10:03:40;;;;;;;2.03;0.60;;;13.10;70.90;;;;;;5054110;28;20044;-80
2021/05/07 10:06:07;;;;;;;1.48;0.50;;;13.20;71.20;;;;;;5075676;28;20048;-80
2021/05/07 10:08:46;;;;;;;1.80;0.70;;;13.30;71.50;;;;;;5065647;28;20043;-80
2021/05/07 10:11:13;;;;;;;1.70;0.60;;;13.70;71.80;;;;;;5088941;28;20044;-80
2021/05/07 10:13:40;;;;;;;1.50;0.50;;;14.10;73.10;;;;;;5069537;28;20032;-80
2021/05/07 10:16:08;;;;;;;1.80;0.70;;;14.40;69.70;;;;;;5090132;28;20063;-80
2021/05/07 10:18:38;;;;;;;3.33;0.80;;;14.50;68.90;;;;;;5087879;28;20040;-80
2021/05/07 10:21:14;;;;;;;1.58;0.60;;;14.50;65.80;;;;;;5054867;28;20040;-80
2021/05/07 10:23:52;;;;;;;2.75;0.75;;;14.60;67.40;;;;;;5054118;28;20507;-80
2021/05/07 10:26:36;;;;;;;1.80;0.50;;;14.70;65.60;;;;;;5090520;28;20051;-80
2021/05/07 10:29:18;;;;;;;1.30;0.50;;;14.90;64.60;;;;;;5067042;28;20406;-81
2021/05/07 10:31:50;;;;;;;1.30;0.40;;;15.00;64.20;;;;;;5075412;28;20036;-82
2021/05/07 10:34:18;;;;;;;4.28;0.75;;;14.80;62.70;;;;;;5079309;28;20032;-81
2021/05/07 10:36:50;;;;;;;3.03;0.90;;;14.80;64.00;;;;;;5052580;28;20063;-81
2021/05/07 10:39:30;;;;;;;2.80;0.85;;;14.70;63.70;;;;;;5083188;28;20043;-79
2021/05/07 10:42:01;;;;;;;2.05;0.70;;;14.70;64.80;;;;;;5079514;28;20046;-78
2021/05/07 10:44:39;;;;;;;1.63;0.73;;;14.90;66.20;;;;;;5070384;28;20043;-80
2021/05/07 10:47:07;;;;;;;1.98;0.55;;;15.20;64.80;;;;;;5064372;28;20494;-81
2021/05/07 10:49:36;;;;;;;1.77;0.70;;;15.50;64.10;;;;;;5082141;28;20040;-80
2021/05/07 10:52:06;;;;;;;2.30;0.73;;;15.90;62.30;;;;;;5049597;28;20044;-80
2021/05/07 10:54:44;;;;;;;3.20;0.50;;;16.20;61.50;;;;;;5080464;28;20055;-80
2021/05/07 10:57:30;;;;;;;1.83;0.63;;;16.70;60.20;;;;;;5055587;28;20356;-79
2021/05/07 11:00:06;;;;;;;2.65;0.60;;;17.10;57.70;;;;;;5048129;28;20036;-78
2021/05/07 11:02:46;;;;;;;3.97;0.70;;;17.40;57.00;;;;;;5065511;28;20418;-79
2021/05/07 11:05:34;;;;;;;1.73;0.70;;;17.30;56.90;;;;;;5058132;28;20122;-81
2021/05/07 11:08:00;;;;;;;3.47;0.70;;;17.10;56.90;;;;;;5076926;28;20032;-82
2021/05/07 11:10:28;;;;;;;1.98;0.60;;;16.80;56.80;;;;;;5047046;28;20035;-83
2021/05/07 11:12:55;;;;;;;2.65;0.40;;;16.60;57.70;;;;;;5079062;28;20542;-83
2021/05/07 11:15:22;;;;;;;1.80;0.50;;;16.70;56.40;;;;;;5032676;28;20043;-84
2021/05/07 11:18:25;;;;;;;2.20;0.52;;;16.60;55.00;;;;;;5047496;28;20036;-81
2021/05/07 11:20:51;;;;;;;;;;;16.70;55.80;;;;;;5055392;28;20044;-80
2021/05/07 11:23:18;;;;;;;2.40;0.30;;;16.50;54.20;;;;;;5051216;28;19919;-81
2021/05/07 11:25:44;;;;;;;3.50;0.50;;;16.30;53.60;;;;;;5051596;28;20051;-80
2021/05/07 11:28:17;;;;;;;2.92;0.70;;;16.70;54.60;;;;;;5050749;28;20040;-80
2021/05/07 11:30:45;;;;;;;2.50;0.90;;;17.40;52.20;;;;;;5049667;28;20074;-80
2021/05/07 11:33:11;;;;;;;4.32;1.70;;;18.00;51.40;;;;;;5068354;28;20047;-79
2021/05/07 11:35:39;;;;;;;2.03;0.77;;;18.50;51.20;;;;;;5071709;28;20058;-80
2021/05/07 11:38:06;;;;;;;3.53;0.50;;;19.00;49.00;;;;;;5087996;28;20764;-81
2021/05/07 11:40:41;;;;;;;1.55;0.30;;;19.10;48.40;;;;;;5064273;28;20043;-81
2021/05/07 11:43:10;;;;;;;4.22;0.50;;;18.60;49.10;;;;;;5052996;28;20454;-80
2021/05/07 11:45:37;;;;;;;3.38;0.60;;;18.00;48.20;;;;;;5051621;28;20065;-80
2021/05/07 11:48:11;;;;;;;1.20;0.30;;;17.20;48.90;;;;;;5069866;28;20041;-80
2021/05/07 11:50:38;;;;;;;1.83;0.40;;;16.50;49.80;;;;;;5046727;28;20039;-80
2021/05/07 11:53:17;;;;;;;1.05;0.35;;;16.30;48.50;;;;;;5070277;28;20040;-81
2021/05/07 11:55:43;;;;;;;1.50;0.50;;;16.90;49.70;;;;;;5059642;28;20032;-81
2021/05/07 11:58:10;;;;;;;1.27;0.50;;;17.10;47.10;;;;;;5070556;28;20054;-81
2021/05/07 12:00:39;;;;;;;2.67;0.70;;;17.20;48.40;;;;;;5084384;28;20032;-81
2021/05/07 12:03:07;;;;;;;2.95;0.75;;;17.90;46.50;;;;;;5066890;28;20050;-81
2021/05/07 12:05:38;;;;;;;1.70;0.40;;;18.40;44.00;;;;;;5085536;28;20501;-81
2021/05/07 12:08:06;;;;;;;2.78;0.65;;;18.10;44.90;;;;;;5054801;28;20430;-82
2021/05/07 12:10:33;;;;;;;2.33;0.60;;;17.50;45.60;;;;;;5050269;28;20036;-81
2021/05/07 12:13:01;;;;;;;2.25;0.60;;;16.80;47.20;;;;;;5064936;28;20033;-81
2021/05/07 12:15:33;;;;;;;2.08;0.50;;;16.70;47.20;;;;;;5087545;28;20032;-81
2021/05/07 12:18:01;;;;;;;1.50;0.60;;;17.50;47.60;;;;;;5052362;28;20055;-81
2021/05/07 12:20:28;;;;;;;2.10;0.40;;;18.50;47.30;;;;;;5046878;28;20036;-81
2021/05/07 12:22:59;;;;;;;1.33;0.50;;;19.70;45.30;;;;;;5088141;28;20032;-82
2021/05/07 12:25:27;;;;;;;1.45;0.50;;;20.70;42.90;;;;;;5055022;28;20051;-82
2021/05/07 12:27:56;;;;;;;2.15;0.47;;;21.20;39.90;;;;;;5080216;28;20170;-81
2021/05/07 12:30:32;;;;;;;1.15;0.60;;;20.90;38.50;;;;;;5071344;28;20040;-82
2021/05/07 12:33:18;;;;;;;1.88;0.50;;;20.00;39.50;;;;;;5069708;28;20047;-83
2021/05/07 12:35:55;;;;;;;1.88;0.60;;;18.80;40.10;;;;;;5087415;28;20044;-83
2021/05/07 12:38:36;;;;;;;1.73;0.50;;;17.90;42.30;;;;;;5081827;28;20040;-83
2021/05/07 12:41:16;;;;;;;1.13;0.50;;;18.20;43.60;;;;;;5084143;28;20044;-83
2021/05/07 12:43:45;;;;;;;2.30;0.30;;;19.10;41.80;;;;;;5072535;28;20047;-82
2021/05/07 12:46:15;;;;;;;2.28;0.50;;;19.10;42.30;;;;;;5058554;28;20080;-82
2021/05/07 12:48:49;;;;;;;1.45;0.50;;;18.70;42.60;;;;;;5069048;28;20106;-82
2021/05/07 12:51:17;;;;;;;1.67;0.50;;;18.20;43.30;;;;;;5066099;28;20394;-83
2021/05/07 12:53:43;;;;;;;1.38;0.68;;;17.90;44.70;;;;;;5082586;28;20048;-82
2021/05/07 12:56:14;;;;;;;2.60;0.57;;;18.30;44.00;;;;;;5070951;28;20031;-82